createdAt,value
2019-03-30T00:00:15.680Z,1025.56
2019-03-30T00:01:15.750Z,1025.55
2019-03-30T00:02:15.696Z,1025.53
2019-03-30T00:03:15.699Z,1025.55
2019-03-30T00:04:15.677Z,1025.54
2019-03-30T00:05:15.697Z,1025.57
2019-03-30T00:06:15.675Z,1025.55
2019-03-30T00:07:15.702Z,1025.56
2019-03-30T00:08:15.648Z,1025.55
2019-03-30T00:09:15.676Z,1025.49
2019-03-30T00:10:15.655Z,1025.52
2019-03-30T00:11:15.710Z,1025.47
2019-03-30T00:12:15.648Z,1025.47
2019-03-30T00:13:15.651Z,1025.51
2019-03-30T00:14:15.748Z,1025.5
2019-03-30T00:15:15.663Z,1025.5
2019-03-30T00:16:15.674Z,1025.54
2019-03-30T00:17:15.660Z,1025.52
2019-03-30T00:18:15.709Z,1025.54
2019-03-30T00:19:15.637Z,1025.51
2019-03-30T00:20:15.674Z,1025.53
2019-03-30T00:21:15.646Z,1025.56
2019-03-30T00:22:15.698Z,1025.56
2019-03-30T00:23:15.658Z,1025.56
2019-03-30T00:24:15.705Z,1025.52
2019-03-30T00:25:15.699Z,1025.54
2019-03-30T00:26:15.634Z,1025.53
2019-03-30T00:27:15.620Z,1025.52
2019-03-30T00:28:15.629Z,1025.53
2019-03-30T00:29:15.908Z,1025.5
2019-03-30T00:30:19.396Z,1025.54
2019-03-30T00:31:15.666Z,1025.54
2019-03-30T00:32:15.702Z,1025.53
2019-03-30T00:33:15.617Z,1025.54
2019-03-30T00:34:15.671Z,1025.51
2019-03-30T00:35:15.717Z,1025.51
2019-03-30T00:36:15.629Z,1025.49
2019-03-30T00:37:16.507Z,1025.51
2019-03-30T00:38:15.617Z,1025.54
2019-03-30T00:39:15.628Z,1025.53
2019-03-30T00:40:15.656Z,1025.51
2019-03-30T00:41:15.692Z,1025.5
2019-03-30T00:42:15.678Z,1025.52
2019-03-30T00:43:15.676Z,1025.51
2019-03-30T00:44:15.602Z,1025.49
2019-03-30T00:45:15.655Z,1025.51
2019-03-30T00:46:15.657Z,1025.51
2019-03-30T00:47:15.620Z,1025.49
2019-03-30T00:48:15.634Z,1025.48
2019-03-30T00:49:15.613Z,1025.5
2019-03-30T00:50:15.807Z,1025.5
2019-03-30T00:51:15.593Z,1025.48
2019-03-30T00:52:15.628Z,1025.48
2019-03-30T00:53:15.670Z,1025.48
2019-03-30T00:54:15.612Z,1025.48
2019-03-30T00:55:15.687Z,1025.47
2019-03-30T00:56:15.658Z,1025.44
2019-03-30T00:57:15.576Z,1025.48
2019-03-30T00:58:15.611Z,1025.44
2019-03-30T00:59:15.610Z,1025.45
2019-03-30T01:00:15.646Z,1025.46
2019-03-30T01:01:15.733Z,1025.45
2019-03-30T01:02:15.600Z,1025.49
2019-03-30T01:03:15.649Z,1025.44
2019-03-30T01:04:15.591Z,1025.45
2019-03-30T01:05:15.635Z,1025.5
2019-03-30T01:06:15.567Z,1025.47
2019-03-30T01:07:15.576Z,1025.48
2019-03-30T01:08:15.632Z,1025.47
2019-03-30T01:09:15.567Z,1025.44
2019-03-30T01:10:15.588Z,1025.45
2019-03-30T01:11:15.628Z,1025.47
2019-03-30T01:12:15.657Z,1025.43
2019-03-30T01:13:15.631Z,1025.45
2019-03-30T01:14:15.574Z,1025.42
2019-03-30T01:15:15.562Z,1025.42
2019-03-30T01:16:15.689Z,1025.43
2019-03-30T01:17:15.569Z,1025.4
2019-03-30T01:18:15.563Z,1025.4
2019-03-30T01:19:15.579Z,1025.38
2019-03-30T01:20:15.600Z,1025.4
2019-03-30T01:21:15.592Z,1025.42
2019-03-30T01:22:15.673Z,1025.47
2019-03-30T01:23:15.581Z,1025.45
2019-03-30T01:24:15.573Z,1025.4
2019-03-30T01:25:15.731Z,1025.45
2019-03-30T01:26:15.571Z,1025.42
2019-03-30T01:27:15.597Z,1025.41
2019-03-30T01:28:15.571Z,1025.39
2019-03-30T01:29:15.546Z,1025.38
2019-03-30T01:30:23.620Z,1025.4
2019-03-30T01:31:15.573Z,1025.35
2019-03-30T01:32:15.542Z,1025.37
2019-03-30T01:33:15.563Z,1025.35
2019-03-30T01:34:15.764Z,1025.32
2019-03-30T01:35:15.682Z,1025.31
2019-03-30T01:36:15.743Z,1025.31
2019-03-30T01:37:15.727Z,1025.27
2019-03-30T01:38:15.576Z,1025.3
2019-03-30T01:39:16.301Z,1025.28
2019-03-30T01:40:15.607Z,1025.3
2019-03-30T01:41:15.579Z,1025.28
2019-03-30T01:42:15.582Z,1025.28
2019-03-30T01:43:15.611Z,1025.27
2019-03-30T01:44:15.603Z,1025.3
2019-03-30T01:45:15.556Z,1025.29
2019-03-30T01:46:15.553Z,1025.29
2019-03-30T01:47:15.542Z,1025.29
2019-03-30T01:48:15.512Z,1025.31
2019-03-30T01:49:15.539Z,1025.32
2019-03-30T01:50:18.281Z,1025.31
2019-03-30T01:51:15.535Z,1025.26
2019-03-30T01:52:15.549Z,1025.26
2019-03-30T01:53:15.567Z,1025.27
2019-03-30T01:54:15.522Z,1025.23
2019-03-30T01:55:15.510Z,1025.27
2019-03-30T01:56:15.660Z,1025.25
2019-03-30T01:57:15.552Z,1025.23
2019-03-30T01:58:15.576Z,1025.24
2019-03-30T01:59:16.581Z,1025.23
2019-03-30T02:00:15.496Z,1025.25
2019-03-30T02:01:15.890Z,1025.26
2019-03-30T02:02:15.530Z,1025.27
2019-03-30T02:03:15.487Z,1025.24
2019-03-30T02:04:15.537Z,1025.21
2019-03-30T02:05:15.494Z,1025.18
2019-03-30T02:06:15.501Z,1025.19
2019-03-30T02:07:15.529Z,1025.18
2019-03-30T02:08:15.577Z,1025.18
2019-03-30T02:09:15.547Z,1025.15
2019-03-30T02:10:15.577Z,1025.16
2019-03-30T02:11:15.546Z,1025.15
2019-03-30T02:12:15.467Z,1025.16
2019-03-30T02:13:15.541Z,1025.14
2019-03-30T02:14:15.538Z,1025.18
2019-03-30T02:15:15.491Z,1025.12
2019-03-30T02:16:15.468Z,1025.15
2019-03-30T02:17:15.610Z,1025.16
2019-03-30T02:18:15.482Z,1025.18
2019-03-30T02:19:15.485Z,1025.16
2019-03-30T02:20:15.484Z,1025.16
2019-03-30T02:21:15.489Z,1025.17
2019-03-30T02:22:15.475Z,1025.17
2019-03-30T02:23:15.562Z,1025.15
2019-03-30T02:24:15.458Z,1025.23
2019-03-30T02:25:15.485Z,1025.2
2019-03-30T02:26:15.513Z,1025.22
2019-03-30T02:27:15.489Z,1025.2
2019-03-30T02:28:15.455Z,1025.18
2019-03-30T02:29:15.507Z,1025.19
2019-03-30T02:30:15.444Z,1025.18
2019-03-30T02:31:15.512Z,1025.16
2019-03-30T02:32:15.476Z,1025.18
2019-03-30T02:33:15.493Z,1025.18
2019-03-30T02:34:15.449Z,1025.22
2019-03-30T02:35:15.489Z,1025.23
2019-03-30T02:36:15.445Z,1025.21
2019-03-30T02:37:15.441Z,1025.21
2019-03-30T02:38:15.471Z,1025.21
2019-03-30T02:39:16.791Z,1025.19
2019-03-30T02:40:15.483Z,1025.23
2019-03-30T02:41:15.495Z,1025.24
2019-03-30T02:42:15.440Z,1025.23
2019-03-30T02:43:15.442Z,1025.25
2019-03-30T02:44:15.464Z,1025.24
2019-03-30T02:45:15.507Z,1025.2
2019-03-30T02:46:15.503Z,1025.2
2019-03-30T02:47:15.437Z,1025.18
2019-03-30T02:48:15.440Z,1025.18
2019-03-30T02:49:15.467Z,1025.15
2019-03-30T02:50:15.458Z,1025.17
2019-03-30T02:51:15.480Z,1025.18
2019-03-30T02:52:15.428Z,1025.2
2019-03-30T02:53:15.441Z,1025.18
2019-03-30T02:54:15.422Z,1025.13
2019-03-30T02:55:15.439Z,1025.18
2019-03-30T02:56:15.424Z,1025.23
2019-03-30T02:57:15.421Z,1025.2
2019-03-30T02:58:15.442Z,1025.19
2019-03-30T02:59:15.512Z,1025.18
2019-03-30T03:00:15.486Z,1025.18
2019-03-30T03:01:15.482Z,1025.14
2019-03-30T03:02:15.484Z,1025.16
2019-03-30T03:03:15.505Z,1025.15
2019-03-30T03:04:15.413Z,1025.15
2019-03-30T03:05:15.442Z,1025.17
2019-03-30T03:06:15.454Z,1025.24
2019-03-30T03:07:15.445Z,1025.23
2019-03-30T03:08:15.425Z,1025.24
2019-03-30T03:09:15.476Z,1025.22
2019-03-30T03:10:15.440Z,1025.24
2019-03-30T03:11:15.407Z,1025.18
2019-03-30T03:12:15.452Z,1025.24
2019-03-30T03:13:15.397Z,1025.18
2019-03-30T03:14:15.413Z,1025.21
2019-03-30T03:15:15.405Z,1025.22
2019-03-30T03:16:15.411Z,1025.19
2019-03-30T03:17:15.406Z,1025.18
2019-03-30T03:18:15.400Z,1025.2
2019-03-30T03:19:15.381Z,1025.19
2019-03-30T03:20:15.486Z,1025.2
2019-03-30T03:21:15.415Z,1025.19
2019-03-30T03:22:17.266Z,1025.16
2019-03-30T03:23:15.493Z,1025.15
2019-03-30T03:24:15.396Z,1025.15
2019-03-30T03:25:15.404Z,1025.14
2019-03-30T03:26:15.405Z,1025.14
2019-03-30T03:27:15.397Z,1025.13
2019-03-30T03:28:15.402Z,1025.13
2019-03-30T03:29:15.419Z,1025.13
2019-03-30T03:30:15.388Z,1025.08
2019-03-30T03:31:15.430Z,1025.11
2019-03-30T03:32:15.380Z,1025.09
2019-03-30T03:33:15.410Z,1025.15
2019-03-30T03:34:15.442Z,1025.13
2019-03-30T03:35:15.379Z,1025.11
2019-03-30T03:36:15.406Z,1025.14
2019-03-30T03:37:15.435Z,1025.13
2019-03-30T03:38:15.480Z,1025.12
2019-03-30T03:39:15.384Z,1025.12
2019-03-30T03:40:15.397Z,1025.17
2019-03-30T03:41:15.443Z,1025.16
2019-03-30T03:42:15.461Z,1025.17
2019-03-30T03:43:15.429Z,1025.18
2019-03-30T03:44:15.385Z,1025.18
2019-03-30T03:45:15.505Z,1025.15
2019-03-30T03:46:15.369Z,1025.17
2019-03-30T03:47:15.370Z,1025.19
2019-03-30T03:48:15.350Z,1025.2
2019-03-30T03:49:16.644Z,1025.18
2019-03-30T03:50:15.388Z,1025.14
2019-03-30T03:51:26.726Z,1025.14
2019-03-30T03:52:15.366Z,1025.17
2019-03-30T03:53:15.370Z,1025.17
2019-03-30T03:54:15.320Z,1025.16
2019-03-30T03:55:15.411Z,1025.13
2019-03-30T03:56:15.405Z,1025.16
2019-03-30T03:57:15.360Z,1025.17
2019-03-30T03:58:15.378Z,1025.15
2019-03-30T03:59:15.419Z,1025.12
2019-03-30T04:00:15.392Z,1025.13
2019-03-30T04:01:16.249Z,1025.13
2019-03-30T04:02:15.396Z,1025.12
2019-03-30T04:03:15.321Z,1025.14
2019-03-30T04:04:15.376Z,1025.12
2019-03-30T04:05:15.892Z,1025.14
2019-03-30T04:06:15.343Z,1025.17
2019-03-30T04:07:15.372Z,1025.16
2019-03-30T04:08:15.377Z,1025.14
2019-03-30T04:09:15.322Z,1025.14
2019-03-30T04:10:15.319Z,1025.14
2019-03-30T04:11:15.421Z,1025.12
2019-03-30T04:12:15.372Z,1025.12
2019-03-30T04:13:15.353Z,1025.12
2019-03-30T04:14:15.336Z,1025.11
2019-03-30T04:15:15.387Z,1025.11
2019-03-30T04:16:15.404Z,1025.13
2019-03-30T04:17:15.318Z,1025.14
2019-03-30T04:18:15.371Z,1025.14
2019-03-30T04:19:15.321Z,1025.12
2019-03-30T04:20:15.330Z,1025.12
2019-03-30T04:21:15.315Z,1025.13
2019-03-30T04:22:15.332Z,1025.13
2019-03-30T04:23:15.391Z,1025.15
2019-03-30T04:24:15.341Z,1025.16
2019-03-30T04:25:15.325Z,1025.18
2019-03-30T04:26:15.316Z,1025.17
2019-03-30T04:27:15.477Z,1025.18
2019-03-30T04:28:15.343Z,1025.16
2019-03-30T04:29:15.388Z,1025.16
2019-03-30T04:30:15.345Z,1025.13
2019-03-30T04:31:15.332Z,1025.18
2019-03-30T04:32:15.307Z,1025.17
2019-03-30T04:33:15.308Z,1025.19
2019-03-30T04:34:15.320Z,1025.13
2019-03-30T04:35:15.361Z,1025.12
2019-03-30T04:36:15.318Z,1025.11
2019-03-30T04:37:15.366Z,1025.15
2019-03-30T04:38:15.326Z,1025.16
2019-03-30T04:39:15.343Z,1025.17
2019-03-30T04:40:15.308Z,1025.14
2019-03-30T04:41:15.282Z,1025.12
2019-03-30T04:42:15.324Z,1025.12
2019-03-30T04:43:15.286Z,1025.14
2019-03-30T04:44:15.329Z,1025.11
2019-03-30T04:45:15.332Z,1025.12
2019-03-30T04:46:15.292Z,1025.13
2019-03-30T04:47:15.264Z,1025.13
2019-03-30T04:48:15.297Z,1025.09
2019-03-30T04:49:15.763Z,1025.1
2019-03-30T04:50:15.363Z,1025.09
2019-03-30T04:51:15.276Z,1025.12
2019-03-30T04:52:15.308Z,1025.1
2019-03-30T04:53:15.274Z,1025.11
2019-03-30T04:54:15.262Z,1025.14
2019-03-30T04:55:15.301Z,1025.17
2019-03-30T04:56:15.308Z,1025.16
2019-03-30T04:57:15.285Z,1025.18
2019-03-30T04:58:15.326Z,1025.17
2019-03-30T04:59:15.297Z,1025.18
2019-03-30T05:00:15.336Z,1025.16
2019-03-30T05:01:15.298Z,1025.22
2019-03-30T05:02:15.367Z,1025.2
2019-03-30T05:03:15.263Z,1025.24
2019-03-30T05:04:15.373Z,1025.23
2019-03-30T05:05:15.252Z,1025.25
2019-03-30T05:06:15.395Z,1025.26
2019-03-30T05:07:15.289Z,1025.26
2019-03-30T05:08:15.249Z,1025.27
2019-03-30T05:09:15.285Z,1025.28
2019-03-30T05:10:15.285Z,1025.25
2019-03-30T05:11:15.754Z,1025.27
2019-03-30T05:12:15.295Z,1025.29
2019-03-30T05:13:15.281Z,1025.24
2019-03-30T05:14:15.253Z,1025.26
2019-03-30T05:15:15.252Z,1025.25
2019-03-30T05:16:15.237Z,1025.25
2019-03-30T05:17:15.258Z,1025.26
2019-03-30T05:18:15.274Z,1025.23
2019-03-30T05:19:15.277Z,1025.25
2019-03-30T05:20:15.302Z,1025.25
2019-03-30T05:21:15.212Z,1025.23
2019-03-30T05:22:16.965Z,1025.24
2019-03-30T05:23:15.233Z,1025.26
2019-03-30T05:24:15.290Z,1025.26
2019-03-30T05:25:15.228Z,1025.26
2019-03-30T05:26:15.232Z,1025.23
2019-03-30T05:27:15.251Z,1025.26
2019-03-30T05:28:15.216Z,1025.28
2019-03-30T05:29:15.230Z,1025.26
2019-03-30T05:30:15.278Z,1025.27
2019-03-30T05:31:15.286Z,1025.27
2019-03-30T05:32:15.364Z,1025.29
2019-03-30T05:33:15.202Z,1025.3
2019-03-30T05:34:15.201Z,1025.27
2019-03-30T05:35:15.254Z,1025.28
2019-03-30T05:36:15.261Z,1025.28
2019-03-30T05:37:15.244Z,1025.29
2019-03-30T05:38:15.227Z,1025.29
2019-03-30T05:39:15.280Z,1025.26
2019-03-30T05:40:15.206Z,1025.3
2019-03-30T05:41:15.202Z,1025.31
2019-03-30T05:42:15.196Z,1025.31
2019-03-30T05:43:15.262Z,1025.32
2019-03-30T05:44:15.200Z,1025.35
2019-03-30T05:45:16.643Z,1025.34
2019-03-30T05:46:15.194Z,1025.29
2019-03-30T05:47:15.244Z,1025.33
2019-03-30T05:48:15.296Z,1025.34
2019-03-30T05:49:15.190Z,1025.33
2019-03-30T05:50:15.207Z,1025.3
2019-03-30T05:51:15.178Z,1025.29
2019-03-30T05:52:26.998Z,1025.32
2019-03-30T05:53:15.329Z,1025.35
2019-03-30T05:54:15.729Z,1025.34
2019-03-30T05:55:15.287Z,1025.35
2019-03-30T05:56:15.195Z,1025.35
2019-03-30T05:57:15.221Z,1025.33
2019-03-30T05:58:15.210Z,1025.34
2019-03-30T05:59:15.183Z,1025.34
2019-03-30T06:00:15.209Z,1025.35
2019-03-30T06:01:15.214Z,1025.36
2019-03-30T06:02:15.222Z,1025.32
2019-03-30T06:03:15.186Z,1025.38
2019-03-30T06:04:15.221Z,1025.37
2019-03-30T06:05:15.241Z,1025.4
2019-03-30T06:06:15.211Z,1025.4
2019-03-30T06:07:15.174Z,1025.41
2019-03-30T06:08:15.201Z,1025.43
2019-03-30T06:09:15.165Z,1025.42
2019-03-30T06:10:15.155Z,1025.44
2019-03-30T06:11:15.175Z,1025.43
2019-03-30T06:12:15.158Z,1025.44
2019-03-30T06:13:15.168Z,1025.46
2019-03-30T06:14:15.319Z,1025.47
2019-03-30T06:15:15.141Z,1025.48
2019-03-30T06:16:15.182Z,1025.5
2019-03-30T06:17:15.210Z,1025.51
2019-03-30T06:18:15.164Z,1025.52
2019-03-30T06:19:15.292Z,1025.49
2019-03-30T06:20:15.143Z,1025.52
2019-03-30T06:21:15.176Z,1025.52
2019-03-30T06:22:15.478Z,1025.5
2019-03-30T06:23:15.162Z,1025.51
2019-03-30T06:24:15.169Z,1025.49
2019-03-30T06:25:15.199Z,1025.49
2019-03-30T06:26:15.141Z,1025.49
2019-03-30T06:27:15.165Z,1025.48
2019-03-30T06:28:15.145Z,1025.48
2019-03-30T06:29:15.125Z,1025.47
2019-03-30T06:30:15.134Z,1025.48
2019-03-30T06:31:15.120Z,1025.5
2019-03-30T06:32:15.224Z,1025.48
2019-03-30T06:33:15.230Z,1025.48
2019-03-30T06:34:15.157Z,1025.47
2019-03-30T06:35:15.154Z,1025.45
2019-03-30T06:36:15.179Z,1025.45
2019-03-30T06:37:15.665Z,1025.5
2019-03-30T06:38:15.154Z,1025.48
2019-03-30T06:39:15.179Z,1025.48
2019-03-30T06:40:15.155Z,1025.5
2019-03-30T06:41:15.173Z,1025.53
2019-03-30T06:42:15.157Z,1025.52
2019-03-30T06:43:15.145Z,1025.51
2019-03-30T06:44:15.231Z,1025.46
2019-03-30T06:45:15.118Z,1025.49
2019-03-30T06:46:15.213Z,1025.47
2019-03-30T06:47:15.145Z,1025.45
2019-03-30T06:48:15.194Z,1025.44
2019-03-30T06:49:15.149Z,1025.47
2019-03-30T06:50:15.142Z,1025.44
2019-03-30T06:51:15.154Z,1025.4
2019-03-30T06:52:15.133Z,1025.4
2019-03-30T06:53:17.554Z,1025.41
2019-03-30T06:54:15.150Z,1025.38
2019-03-30T06:55:15.150Z,1025.36
2019-03-30T06:56:15.159Z,1025.38
2019-03-30T06:57:15.217Z,1025.38
2019-03-30T06:58:15.395Z,1025.43
2019-03-30T06:59:15.171Z,1025.42
2019-03-30T07:00:15.157Z,1025.39
2019-03-30T07:01:15.284Z,1025.39
2019-03-30T07:02:15.289Z,1025.37
2019-03-30T07:03:15.158Z,1025.41
2019-03-30T07:04:15.078Z,1025.36
2019-03-30T07:05:15.080Z,1025.41
2019-03-30T07:06:15.103Z,1025.37
2019-03-30T07:07:15.111Z,1025.41
2019-03-30T07:08:15.235Z,1025.36
2019-03-30T07:09:15.121Z,1025.36
2019-03-30T07:10:15.233Z,1025.33
2019-03-30T07:11:21.636Z,1025.37
2019-03-30T07:12:15.086Z,1025.34
2019-03-30T07:13:15.116Z,1025.32
2019-03-30T07:14:15.144Z,1025.3
2019-03-30T07:15:15.099Z,1025.32
2019-03-30T07:16:15.082Z,1025.32
2019-03-30T07:17:15.123Z,1025.3
2019-03-30T07:18:15.109Z,1025.31
2019-03-30T07:19:15.082Z,1025.3
2019-03-30T07:20:15.339Z,1025.36
2019-03-30T07:21:15.061Z,1025.36
2019-03-30T07:22:15.102Z,1025.34
2019-03-30T07:23:15.133Z,1025.36
2019-03-30T07:24:15.123Z,1025.34
2019-03-30T07:25:15.117Z,1025.35
2019-03-30T07:26:15.112Z,1025.35
2019-03-30T07:27:15.119Z,1025.32
2019-03-30T07:28:15.098Z,1025.33
2019-03-30T07:29:15.112Z,1025.35
2019-03-30T07:30:15.322Z,1025.34
2019-03-30T07:31:15.127Z,1025.33
2019-03-30T07:32:15.106Z,1025.29
2019-03-30T07:33:17.358Z,1025.3
2019-03-30T07:34:15.091Z,1025.3
2019-03-30T07:35:15.104Z,1025.3
2019-03-30T07:36:15.021Z,1025.28
2019-03-30T07:37:15.138Z,1025.3
2019-03-30T07:38:15.243Z,1025.32
2019-03-30T07:39:15.128Z,1025.31
2019-03-30T07:40:15.066Z,1025.28
2019-03-30T07:41:15.071Z,1025.27
2019-03-30T07:42:15.178Z,1025.28
2019-03-30T07:43:15.148Z,1025.27
2019-03-30T07:44:15.173Z,1025.31
2019-03-30T07:45:15.055Z,1025.29
2019-03-30T07:46:15.035Z,1025.3
2019-03-30T07:47:15.120Z,1025.3
2019-03-30T07:48:15.078Z,1025.33
2019-03-30T07:49:15.090Z,1025.34
2019-03-30T07:50:16.152Z,1025.32
2019-03-30T07:51:15.144Z,1025.29
2019-03-30T07:52:15.141Z,1025.3
2019-03-30T07:53:27.001Z,1025.28
2019-03-30T07:54:15.165Z,1025.3
2019-03-30T07:55:15.089Z,1025.32
2019-03-30T07:56:15.033Z,1025.29
2019-03-30T07:57:17.625Z,1025.32
2019-03-30T07:58:15.118Z,1025.3
2019-03-30T07:59:15.040Z,1025.3
2019-03-30T08:00:18.276Z,1025.31
2019-03-30T08:01:15.107Z,1025.35
2019-03-30T08:02:15.101Z,1025.34
2019-03-30T08:03:15.342Z,1025.37
2019-03-30T08:04:15.057Z,1025.31
2019-03-30T08:05:15.016Z,1025.31
2019-03-30T08:06:14.999Z,1025.35
2019-03-30T08:07:15.093Z,1025.34
2019-03-30T08:08:15.036Z,1025.33
2019-03-30T08:09:15.001Z,1025.31
2019-03-30T08:10:15.026Z,1025.32
2019-03-30T08:11:15.105Z,1025.31
2019-03-30T08:12:14.997Z,1025.3
2019-03-30T08:13:15.145Z,1025.3
2019-03-30T08:14:15.050Z,1025.29
2019-03-30T08:15:15.017Z,1025.27
2019-03-30T08:16:15.047Z,1025.3
2019-03-30T08:17:15.032Z,1025.28
2019-03-30T08:18:14.985Z,1025.3
2019-03-30T08:19:14.989Z,1025.27
2019-03-30T08:20:15.006Z,1025.23
2019-03-30T08:21:14.995Z,1025.25
2019-03-30T08:22:15.025Z,1025.22
2019-03-30T08:23:14.970Z,1025.26
2019-03-30T08:24:15.026Z,1025.25
2019-03-30T08:25:15.217Z,1025.25
2019-03-30T08:26:14.988Z,1025.24
2019-03-30T08:27:14.975Z,1025.27
2019-03-30T08:28:14.979Z,1025.28
2019-03-30T08:29:14.986Z,1025.28
2019-03-30T08:30:14.957Z,1025.29
2019-03-30T08:31:14.999Z,1025.27
2019-03-30T08:32:14.960Z,1025.28
2019-03-30T08:33:15.015Z,1025.26
2019-03-30T08:34:15.127Z,1025.3
2019-03-30T08:35:14.995Z,1025.27
2019-03-30T08:36:14.987Z,1025.3
2019-03-30T08:37:15.040Z,1025.28
2019-03-30T08:38:15.017Z,1025.29
2019-03-30T08:39:15.038Z,1025.25
2019-03-30T08:40:15.028Z,1025.25
2019-03-30T08:41:15.032Z,1025.27
2019-03-30T08:42:14.971Z,1025.25
2019-03-30T08:43:15.015Z,1025.2
2019-03-30T08:44:14.998Z,1025.22
2019-03-30T08:45:14.977Z,1025.22
2019-03-30T08:46:15.063Z,1025.21
2019-03-30T08:47:14.977Z,1025.2
2019-03-30T08:48:15.121Z,1025.21
2019-03-30T08:49:15.004Z,1025.19
2019-03-30T08:50:14.940Z,1025.16
2019-03-30T08:51:14.980Z,1025.16
2019-03-30T08:52:14.946Z,1025.16
2019-03-30T08:53:14.938Z,1025.18
2019-03-30T08:54:14.962Z,1025.13
2019-03-30T08:55:14.975Z,1025.1
2019-03-30T08:56:14.956Z,1025.12
2019-03-30T08:57:14.919Z,1025.07
2019-03-30T08:58:14.987Z,1025.03
2019-03-30T08:59:14.905Z,1025.01
2019-03-30T09:00:14.942Z,1025.01
2019-03-30T09:01:14.989Z,1024.98
2019-03-30T09:02:14.967Z,1025
2019-03-30T09:03:15.003Z,1024.99
2019-03-30T09:04:14.931Z,1024.99
2019-03-30T09:05:14.954Z,1024.98
2019-03-30T09:06:14.958Z,1025
2019-03-30T09:07:14.987Z,1024.97
2019-03-30T09:08:15.386Z,1024.99
2019-03-30T09:09:14.947Z,1024.98
2019-03-30T09:10:14.943Z,1024.98
2019-03-30T09:11:14.938Z,1024.97
2019-03-30T09:12:14.928Z,1024.98
2019-03-30T09:13:15.262Z,1024.97
2019-03-30T09:14:14.920Z,1024.9
2019-03-30T09:15:14.915Z,1024.9
2019-03-30T09:16:14.915Z,1024.93
2019-03-30T09:17:15.021Z,1024.95
2019-03-30T09:18:15.402Z,1024.88
2019-03-30T09:19:14.916Z,1024.85
2019-03-30T09:20:14.913Z,1024.88
2019-03-30T09:21:14.925Z,1024.85
2019-03-30T09:22:14.888Z,1024.84
2019-03-30T09:23:14.934Z,1024.84
2019-03-30T09:24:14.935Z,1024.85
2019-03-30T09:25:15.804Z,1024.84
2019-03-30T09:26:16.913Z,1024.85
2019-03-30T09:27:14.992Z,1024.8
2019-03-30T09:28:14.899Z,1024.8
2019-03-30T09:29:15.291Z,1024.79
2019-03-30T09:30:14.918Z,1024.78
2019-03-30T09:31:14.954Z,1024.76
2019-03-30T09:32:15.363Z,1024.76
2019-03-30T09:33:14.981Z,1024.78
2019-03-30T09:34:15.015Z,1024.74
2019-03-30T09:35:14.995Z,1024.75
2019-03-30T09:36:14.901Z,1024.71
2019-03-30T09:37:14.932Z,1024.69
2019-03-30T09:38:15.334Z,1024.68
2019-03-30T09:39:15.907Z,1024.68
2019-03-30T09:40:14.908Z,1024.7
2019-03-30T09:41:14.914Z,1024.72
2019-03-30T09:42:15.013Z,1024.67
2019-03-30T09:43:14.921Z,1024.68
2019-03-30T09:44:14.885Z,1024.66
2019-03-30T09:45:14.915Z,1024.61
2019-03-30T09:46:14.871Z,1024.63
2019-03-30T09:47:14.972Z,1024.65
2019-03-30T09:48:14.975Z,1024.62
2019-03-30T09:49:14.887Z,1024.6
2019-03-30T09:50:14.912Z,1024.59
2019-03-30T09:51:14.983Z,1024.56
2019-03-30T09:52:14.864Z,1024.57
2019-03-30T09:53:14.925Z,1024.59
2019-03-30T09:54:24.303Z,1024.55
2019-03-30T09:55:14.853Z,1024.53
2019-03-30T09:56:14.840Z,1024.52
2019-03-30T09:57:14.862Z,1024.5
2019-03-30T09:58:14.937Z,1024.52
2019-03-30T09:59:14.829Z,1024.52
2019-03-30T10:00:14.856Z,1024.52
2019-03-30T10:01:14.897Z,1024.5
2019-03-30T10:02:14.827Z,1024.46
2019-03-30T10:03:14.839Z,1024.44
2019-03-30T10:04:14.838Z,1024.43
2019-03-30T10:05:14.913Z,1024.42
2019-03-30T10:06:14.830Z,1024.42
2019-03-30T10:07:15.007Z,1024.4
2019-03-30T10:08:14.835Z,1024.39
2019-03-30T10:09:14.854Z,1024.35
2019-03-30T10:10:14.807Z,1024.34
2019-03-30T10:11:14.928Z,1024.34
2019-03-30T10:12:16.074Z,1024.32
2019-03-30T10:13:14.902Z,1024.3
2019-03-30T10:14:14.856Z,1024.27
2019-03-30T10:15:14.909Z,1024.26
2019-03-30T10:16:14.819Z,1024.25
2019-03-30T10:17:14.965Z,1024.27
2019-03-30T10:18:14.813Z,1024.3
2019-03-30T10:19:14.824Z,1024.28
2019-03-30T10:20:14.817Z,1024.29
2019-03-30T10:21:14.832Z,1024.31
2019-03-30T10:22:14.829Z,1024.27
2019-03-30T10:23:14.840Z,1024.29
2019-03-30T10:24:14.869Z,1024.31
2019-03-30T10:25:14.803Z,1024.26
2019-03-30T10:26:14.886Z,1024.27
2019-03-30T10:27:14.850Z,1024.26
2019-03-30T10:28:14.835Z,1024.3
2019-03-30T10:29:14.816Z,1024.23
2019-03-30T10:30:14.825Z,1024.24
2019-03-30T10:31:14.814Z,1024.19
2019-03-30T10:32:14.921Z,1024.18
2019-03-30T10:33:14.850Z,1024.15
2019-03-30T10:34:14.783Z,1024.09
2019-03-30T10:35:15.706Z,1024.08
2019-03-30T10:36:14.823Z,1024.1
2019-03-30T10:37:14.843Z,1024.07
2019-03-30T10:38:14.795Z,1024.08
2019-03-30T10:39:14.798Z,1024.06
2019-03-30T10:40:14.817Z,1024.06
2019-03-30T10:41:14.840Z,1024.03
2019-03-30T10:42:14.770Z,1024.02
2019-03-30T10:43:14.809Z,1024.03
2019-03-30T10:44:14.877Z,1023.99
2019-03-30T10:45:14.834Z,1023.98
2019-03-30T10:46:14.769Z,1023.93
2019-03-30T10:47:14.778Z,1023.92
2019-03-30T10:48:14.796Z,1023.95
2019-03-30T10:49:14.843Z,1023.95
2019-03-30T10:50:14.765Z,1023.96
2019-03-30T10:51:14.788Z,1023.92
2019-03-30T10:52:14.807Z,1023.89
2019-03-30T10:53:14.793Z,1023.92
2019-03-30T10:54:14.796Z,1023.9
2019-03-30T10:55:14.811Z,1023.84
2019-03-30T10:56:15.026Z,1023.85
2019-03-30T10:57:14.816Z,1023.82
2019-03-30T10:58:14.751Z,1023.82
2019-03-30T10:59:14.743Z,1023.79
2019-03-30T11:00:14.772Z,1023.77
2019-03-30T11:01:14.754Z,1023.76
2019-03-30T11:02:14.756Z,1023.76
2019-03-30T11:03:14.775Z,1023.7
2019-03-30T11:04:14.798Z,1023.68
2019-03-30T11:05:14.782Z,1023.66
2019-03-30T11:06:14.765Z,1023.66
2019-03-30T11:07:14.744Z,1023.65
2019-03-30T11:08:14.728Z,1023.61
2019-03-30T11:09:14.754Z,1023.61
2019-03-30T11:10:14.758Z,1023.61
2019-03-30T11:11:14.813Z,1023.59
2019-03-30T11:12:14.729Z,1023.55
2019-03-30T11:13:14.810Z,1023.54
2019-03-30T11:14:14.739Z,1023.51
2019-03-30T11:15:14.737Z,1023.48
2019-03-30T11:16:14.762Z,1023.49
2019-03-30T11:17:14.757Z,1023.46
2019-03-30T11:18:14.796Z,1023.43
2019-03-30T11:19:14.765Z,1023.42
2019-03-30T11:20:15.754Z,1023.39
2019-03-30T11:21:14.794Z,1023.44
2019-03-30T11:22:14.760Z,1023.45
2019-03-30T11:23:14.732Z,1023.42
2019-03-30T11:24:14.731Z,1023.36
2019-03-30T11:25:14.725Z,1023.36
2019-03-30T11:26:14.862Z,1023.3
2019-03-30T11:27:14.824Z,1023.29
2019-03-30T11:28:14.710Z,1023.33
2019-03-30T11:29:14.765Z,1023.25
2019-03-30T11:30:14.858Z,1023.25
2019-03-30T11:31:14.725Z,1023.19
2019-03-30T11:32:14.702Z,1023.18
2019-03-30T11:33:14.764Z,1023.2
2019-03-30T11:34:14.714Z,1023.17
2019-03-30T11:35:14.734Z,1023.21
2019-03-30T11:36:14.742Z,1023.17
2019-03-30T11:37:14.726Z,1023.16
2019-03-30T11:38:14.823Z,1023.16
2019-03-30T11:39:14.710Z,1023.09
2019-03-30T11:40:14.718Z,1023.11
2019-03-30T11:41:14.782Z,1023.11
2019-03-30T11:42:14.715Z,1023.1
2019-03-30T11:43:14.735Z,1023.12
2019-03-30T11:44:14.772Z,1023.12
2019-03-30T11:45:14.728Z,1023.12
2019-03-30T11:46:14.828Z,1023.06
2019-03-30T11:47:14.698Z,1023.06
2019-03-30T11:48:14.751Z,1023.06
2019-03-30T11:49:14.773Z,1023.03
2019-03-30T11:50:14.719Z,1023.01
2019-03-30T11:51:14.732Z,1022.97
2019-03-30T11:52:14.746Z,1023
2019-03-30T11:53:14.688Z,1022.94
2019-03-30T11:54:14.678Z,1022.92
2019-03-30T11:55:22.529Z,1022.93
2019-03-30T11:56:14.711Z,1022.94
2019-03-30T11:57:14.735Z,1022.9
2019-03-30T11:58:14.709Z,1022.89
2019-03-30T11:59:14.674Z,1022.85
2019-03-30T12:00:14.758Z,1022.82
2019-03-30T12:01:14.779Z,1022.83
2019-03-30T12:02:28.443Z,1022.83
2019-03-30T12:03:14.744Z,1022.83
2019-03-30T12:04:14.749Z,1022.8
2019-03-30T12:05:14.701Z,1022.76
2019-03-30T12:06:14.703Z,1022.74
2019-03-30T12:07:14.701Z,1022.72
2019-03-30T12:08:14.696Z,1022.71